sensor_id;sensor_type;location;lat;lon;timestamp;P1;durP1;ratioP1;P2;durP2;ratioP2
46266;SDS011;31998;48.798;15.066;2023-04-03T00:01:21;7.80;;;7.20;;
46266;SDS011;31998;48.798;15.066;2023-04-03T00:03:46;6.10;;;5.70;;
46266;SDS011;31998;48.798;15.066;2023-04-03T00:06:12;6.93;;;6.33;;
46266;SDS011;31998;48.798;15.066;2023-04-03T00:08:37;6.97;;;6.30;;
46266;SDS011;31998;48.798;15.066;2023-04-03T00:11:03;6.90;;;6.40;;
46266;SDS011;31998;48.798;15.066;2023-04-03T00:13:29;6.97;;;6.37;;
46266;SDS011;31998;48.798;15.066;2023-04-03T00:15:54;7.30;;;6.80;;
46266;SDS011;31998;48.798;15.066;2023-04-03T00:18:20;7.60;;;6.97;;
46266;SDS011;31998;48.798;15.066;2023-04-03T00:20:45;7.17;;;6.57;;
46266;SDS011;31998;48.798;15.066;2023-04-03T00:23:11;7.23;;;6.53;;
46266;SDS011;31998;48.798;15.066;2023-04-03T00:25:36;9.60;;;6.27;;
46266;SDS011;31998;48.798;15.066;2023-04-03T00:28:02;6.70;;;6.03;;
46266;SDS011;31998;48.798;15.066;2023-04-03T00:30:27;10.57;;;7.00;;
46266;SDS011;31998;48.798;15.066;2023-04-03T00:32:52;6.40;;;5.90;;
46266;SDS011;31998;48.798;15.066;2023-04-03T00:35:18;7.30;;;6.60;;
46266;SDS011;31998;48.798;15.066;2023-04-03T00:37:44;6.33;;;5.90;;
46266;SDS011;31998;48.798;15.066;2023-04-03T00:40:10;6.10;;;5.70;;
46266;SDS011;31998;48.798;15.066;2023-04-03T00:42:37;5.93;;;5.53;;
46266;SDS011;31998;48.798;15.066;2023-04-03T00:47:27;6.47;;;5.70;;
46266;SDS011;31998;48.798;15.066;2023-04-03T00:49:53;5.70;;;5.37;;
46266;SDS011;31998;48.798;15.066;2023-04-03T00:52:19;6.13;;;5.63;;
46266;SDS011;31998;48.798;15.066;2023-04-03T00:54:46;6.17;;;5.67;;
46266;SDS011;31998;48.798;15.066;2023-04-03T00:57:12;6.83;;;6.13;;
46266;SDS011;31998;48.798;15.066;2023-04-03T00:59:39;7.30;;;6.60;;
46266;SDS011;31998;48.798;15.066;2023-04-03T01:02:07;8.67;;;6.17;;
46266;SDS011;31998;48.798;15.066;2023-04-03T01:04:36;6.43;;;6.03;;
46266;SDS011;31998;48.798;15.066;2023-04-03T01:07:05;6.60;;;6.20;;
46266;SDS011;31998;48.798;15.066;2023-04-03T01:09:31;6.37;;;5.77;;
46266;SDS011;31998;48.798;15.066;2023-04-03T01:12:16;6.97;;;6.10;;
46266;SDS011;31998;48.798;15.066;2023-04-03T01:14:42;7.13;;;6.43;;
46266;SDS011;31998;48.798;15.066;2023-04-03T01:19:48;5.63;;;4.93;;
46266;SDS011;31998;48.798;15.066;2023-04-03T01:22:19;5.97;;;5.40;;
46266;SDS011;31998;48.798;15.066;2023-04-03T01:24:50;5.83;;;5.20;;
46266;SDS011;31998;48.798;15.066;2023-04-03T01:27:16;5.07;;;4.77;;
46266;SDS011;31998;48.798;15.066;2023-04-03T01:29:42;6.93;;;6.07;;
46266;SDS011;31998;48.798;15.066;2023-04-03T01:32:08;7.23;;;6.83;;
46266;SDS011;31998;48.798;15.066;2023-04-03T01:34:33;6.00;;;5.50;;
46266;SDS011;31998;48.798;15.066;2023-04-03T01:37:01;5.30;;;5.00;;
46266;SDS011;31998;48.798;15.066;2023-04-03T01:39:26;6.33;;;4.63;;
46266;SDS011;31998;48.798;15.066;2023-04-03T01:41:51;5.73;;;5.20;;
46266;SDS011;31998;48.798;15.066;2023-04-03T01:44:17;4.83;;;4.63;;
46266;SDS011;31998;48.798;15.066;2023-04-03T01:46:42;5.20;;;4.80;;
46266;SDS011;31998;48.798;15.066;2023-04-03T01:49:09;5.00;;;4.63;;
46266;SDS011;31998;48.798;15.066;2023-04-03T01:51:34;5.37;;;4.90;;
46266;SDS011;31998;48.798;15.066;2023-04-03T01:53:59;5.00;;;4.70;;
46266;SDS011;31998;48.798;15.066;2023-04-03T01:56:25;6.00;;;5.50;;
46266;SDS011;31998;48.798;15.066;2023-04-03T01:58:50;4.10;;;3.90;;
46266;SDS011;31998;48.798;15.066;2023-04-03T02:01:15;7.00;;;4.73;;
46266;SDS011;31998;48.798;15.066;2023-04-03T02:03:41;12.03;;;4.57;;
46266;SDS011;31998;48.798;15.066;2023-04-03T02:06:06;4.93;;;4.63;;
46266;SDS011;31998;48.798;15.066;2023-04-03T02:08:31;4.93;;;4.57;;
46266;SDS011;31998;48.798;15.066;2023-04-03T02:10:56;4.53;;;4.23;;
46266;SDS011;31998;48.798;15.066;2023-04-03T02:13:22;6.40;;;4.47;;
46266;SDS011;31998;48.798;15.066;2023-04-03T02:15:47;5.00;;;4.53;;
46266;SDS011;31998;48.798;15.066;2023-04-03T02:18:14;5.83;;;5.33;;
46266;SDS011;31998;48.798;15.066;2023-04-03T02:20:40;5.30;;;4.90;;
46266;SDS011;31998;48.798;15.066;2023-04-03T02:23:05;4.53;;;4.33;;
46266;SDS011;31998;48.798;15.066;2023-04-03T02:25:31;5.07;;;4.73;;
46266;SDS011;31998;48.798;15.066;2023-04-03T02:27:56;4.90;;;4.50;;
46266;SDS011;31998;48.798;15.066;2023-04-03T02:30:21;6.40;;;4.60;;
46266;SDS011;31998;48.798;15.066;2023-04-03T02:32:47;4.67;;;4.40;;
46266;SDS011;31998;48.798;15.066;2023-04-03T02:35:12;5.23;;;4.93;;
46266;SDS011;31998;48.798;15.066;2023-04-03T02:37:37;5.00;;;4.60;;
46266;SDS011;31998;48.798;15.066;2023-04-03T02:40:03;5.77;;;4.80;;
46266;SDS011;31998;48.798;15.066;2023-04-03T02:42:28;6.00;;;4.53;;
46266;SDS011;31998;48.798;15.066;2023-04-03T02:44:53;5.77;;;5.27;;
46266;SDS011;31998;48.798;15.066;2023-04-03T02:47:19;9.00;;;5.00;;
46266;SDS011;31998;48.798;15.066;2023-04-03T02:49:44;4.37;;;4.07;;
46266;SDS011;31998;48.798;15.066;2023-04-03T02:52:10;5.13;;;4.87;;
46266;SDS011;31998;48.798;15.066;2023-04-03T02:54:36;4.43;;;4.13;;
46266;SDS011;31998;48.798;15.066;2023-04-03T02:57:01;4.97;;;4.77;;
46266;SDS011;31998;48.798;15.066;2023-04-03T02:59:26;5.97;;;5.60;;
46266;SDS011;31998;48.798;15.066;2023-04-03T03:01:51;6.27;;;5.67;;
46266;SDS011;31998;48.798;15.066;2023-04-03T03:04:17;6.17;;;5.13;;
46266;SDS011;31998;48.798;15.066;2023-04-03T03:06:42;7.80;;;5.20;;
46266;SDS011;31998;48.798;15.066;2023-04-03T03:09:07;6.93;;;5.50;;
46266;SDS011;31998;48.798;15.066;2023-04-03T03:11:32;7.70;;;5.50;;
46266;SDS011;31998;48.798;15.066;2023-04-03T03:13:58;5.50;;;4.60;;
46266;SDS011;31998;48.798;15.066;2023-04-03T03:16:23;6.10;;;5.53;;
46266;SDS011;31998;48.798;15.066;2023-04-03T03:18:48;4.80;;;4.50;;
46266;SDS011;31998;48.798;15.066;2023-04-03T03:21:14;5.20;;;4.90;;
46266;SDS011;31998;48.798;15.066;2023-04-03T03:23:39;5.70;;;5.30;;
46266;SDS011;31998;48.798;15.066;2023-04-03T03:26:06;4.53;;;4.23;;
46266;SDS011;31998;48.798;15.066;2023-04-03T03:28:31;8.23;;;5.50;;
46266;SDS011;31998;48.798;15.066;2023-04-03T03:30:58;5.20;;;4.73;;
46266;SDS011;31998;48.798;15.066;2023-04-03T03:33:23;5.30;;;4.90;;
46266;SDS011;31998;48.798;15.066;2023-04-03T03:35:48;5.80;;;5.30;;
46266;SDS011;31998;48.798;15.066;2023-04-03T03:38:14;5.50;;;4.50;;
46266;SDS011;31998;48.798;15.066;2023-04-03T03:40:40;5.13;;;4.83;;
46266;SDS011;31998;48.798;15.066;2023-04-03T03:43:05;5.13;;;4.63;;
46266;SDS011;31998;48.798;15.066;2023-04-03T03:45:31;4.57;;;4.17;;
46266;SDS011;31998;48.798;15.066;2023-04-03T03:47:56;4.73;;;4.43;;
46266;SDS011;31998;48.798;15.066;2023-04-03T03:50:21;5.10;;;4.70;;
46266;SDS011;31998;48.798;15.066;2023-04-03T03:52:46;4.50;;;4.13;;
46266;SDS011;31998;48.798;15.066;2023-04-03T03:55:12;4.03;;;3.83;;
46266;SDS011;31998;48.798;15.066;2023-04-03T03:57:37;4.57;;;4.27;;
46266;SDS011;31998;48.798;15.066;2023-04-03T04:00:03;3.40;;;3.30;;
46266;SDS011;31998;48.798;15.066;2023-04-03T04:02:28;4.10;;;3.90;;
46266;SDS011;31998;48.798;15.066;2023-04-03T04:04:54;4.70;;;3.73;;
46266;SDS011;31998;48.798;15.066;2023-04-03T04:07:19;4.13;;;3.93;;
46266;SDS011;31998;48.798;15.066;2023-04-03T04:09:44;3.83;;;3.63;;
46266;SDS011;31998;48.798;15.066;2023-04-03T04:12:10;4.10;;;3.80;;
46266;SDS011;31998;48.798;15.066;2023-04-03T04:14:35;6.63;;;3.87;;
46266;SDS011;31998;48.798;15.066;2023-04-03T04:17:00;4.20;;;3.97;;
46266;SDS011;31998;48.798;15.066;2023-04-03T04:19:27;8.90;;;5.40;;
46266;SDS011;31998;48.798;15.066;2023-04-03T04:21:52;4.80;;;4.53;;
46266;SDS011;31998;48.798;15.066;2023-04-03T04:24:17;5.30;;;4.80;;
46266;SDS011;31998;48.798;15.066;2023-04-03T04:26:42;4.87;;;4.67;;
46266;SDS011;31998;48.798;15.066;2023-04-03T04:29:08;6.40;;;5.90;;
46266;SDS011;31998;48.798;15.066;2023-04-03T04:31:33;6.00;;;5.57;;
46266;SDS011;31998;48.798;15.066;2023-04-03T04:33:59;7.77;;;6.63;;
46266;SDS011;31998;48.798;15.066;2023-04-03T04:36:25;5.47;;;5.17;;
46266;SDS011;31998;48.798;15.066;2023-04-03T04:38:50;9.50;;;5.53;;
46266;SDS011;31998;48.798;15.066;2023-04-03T04:41:17;6.60;;;6.10;;
46266;SDS011;31998;48.798;15.066;2023-04-03T04:43:43;7.13;;;6.60;;
46266;SDS011;31998;48.798;15.066;2023-04-03T04:46:09;9.43;;;6.50;;
46266;SDS011;31998;48.798;15.066;2023-04-03T04:48:36;6.47;;;5.83;;
46266;SDS011;31998;48.798;15.066;2023-04-03T04:51:01;7.10;;;6.40;;
46266;SDS011;31998;48.798;15.066;2023-04-03T04:53:27;8.93;;;7.37;;
46266;SDS011;31998;48.798;15.066;2023-04-03T04:55:52;10.30;;;7.37;;
46266;SDS011;31998;48.798;15.066;2023-04-03T04:58:17;7.53;;;6.80;;
46266;SDS011;31998;48.798;15.066;2023-04-03T05:00:43;8.77;;;7.67;;
46266;SDS011;31998;48.798;15.066;2023-04-03T05:03:08;11.03;;;9.47;;
46266;SDS011;31998;48.798;15.066;2023-04-03T05:05:33;10.47;;;9.07;;
46266;SDS011;31998;48.798;15.066;2023-04-03T05:07:59;8.60;;;7.80;;
46266;SDS011;31998;48.798;15.066;2023-04-03T05:10:24;7.70;;;6.83;;
46266;SDS011;31998;48.798;15.066;2023-04-03T05:12:51;7.57;;;6.97;;
46266;SDS011;31998;48.798;15.066;2023-04-03T05:15:16;10.20;;;6.60;;
46266;SDS011;31998;48.798;15.066;2023-04-03T05:17:41;5.83;;;5.33;;
46266;SDS011;31998;48.798;15.066;2023-04-03T05:20:07;5.03;;;4.50;;
46266;SDS011;31998;48.798;15.066;2023-04-03T05:22:32;4.17;;;3.63;;
46266;SDS011;31998;48.798;15.066;2023-04-03T05:24:58;4.00;;;3.60;;
46266;SDS011;31998;48.798;15.066;2023-04-03T05:27:23;3.17;;;2.90;;
46266;SDS011;31998;48.798;15.066;2023-04-03T05:29:49;2.33;;;2.23;;
46266;SDS011;31998;48.798;15.066;2023-04-03T05:32:14;2.73;;;2.50;;
46266;SDS011;31998;48.798;15.066;2023-04-03T05:34:39;2.43;;;2.30;;
46266;SDS011;31998;48.798;15.066;2023-04-03T05:37:05;2.83;;;2.73;;
46266;SDS011;31998;48.798;15.066;2023-04-03T05:39:30;2.50;;;2.40;;
46266;SDS011;31998;48.798;15.066;2023-04-03T05:41:56;4.60;;;2.93;;
46266;SDS011;31998;48.798;15.066;2023-04-03T05:44:23;2.80;;;2.60;;
46266;SDS011;31998;48.798;15.066;2023-04-03T05:46:48;4.37;;;2.70;;
46266;SDS011;31998;48.798;15.066;2023-04-03T05:49:13;2.23;;;2.07;;
46266;SDS011;31998;48.798;15.066;2023-04-03T05:51:39;3.03;;;2.47;;
46266;SDS011;31998;48.798;15.066;2023-04-03T05:56:35;2.67;;;2.47;;
46266;SDS011;31998;48.798;15.066;2023-04-03T05:59:00;2.90;;;2.50;;
46266;SDS011;31998;48.798;15.066;2023-04-03T06:01:26;3.77;;;3.07;;
46266;SDS011;31998;48.798;15.066;2023-04-03T06:03:51;3.00;;;2.50;;
46266;SDS011;31998;48.798;15.066;2023-04-03T06:06:16;2.60;;;2.07;;
46266;SDS011;31998;48.798;15.066;2023-04-03T06:08:41;2.60;;;2.40;;
46266;SDS011;31998;48.798;15.066;2023-04-03T06:11:08;2.20;;;2.10;;
46266;SDS011;31998;48.798;15.066;2023-04-03T06:13:34;2.83;;;2.57;;
46266;SDS011;31998;48.798;15.066;2023-04-03T06:16:00;2.57;;;2.37;;
46266;SDS011;31998;48.798;15.066;2023-04-03T06:18:25;2.80;;;2.50;;
46266;SDS011;31998;48.798;15.066;2023-04-03T06:20:51;5.67;;;2.90;;
46266;SDS011;31998;48.798;15.066;2023-04-03T06:23:16;2.30;;;1.93;;
46266;SDS011;31998;48.798;15.066;2023-04-03T06:25:41;4.33;;;2.93;;
46266;SDS011;31998;48.798;15.066;2023-04-03T06:28:07;1.93;;;1.80;;
46266;SDS011;31998;48.798;15.066;2023-04-03T06:30:34;7.60;;;3.60;;
46266;SDS011;31998;48.798;15.066;2023-04-03T06:33:00;3.43;;;2.57;;
46266;SDS011;31998;48.798;15.066;2023-04-03T06:35:25;2.30;;;2.10;;
46266;SDS011;31998;48.798;15.066;2023-04-03T06:37:51;3.10;;;2.07;;
46266;SDS011;31998;48.798;15.066;2023-04-03T06:40:21;1.53;;;1.43;;
46266;SDS011;31998;48.798;15.066;2023-04-03T06:42:47;1.53;;;1.53;;
46266;SDS011;31998;48.798;15.066;2023-04-03T06:45:12;2.03;;;1.60;;
46266;SDS011;31998;48.798;15.066;2023-04-03T06:47:37;1.63;;;1.53;;
46266;SDS011;31998;48.798;15.066;2023-04-03T06:50:02;3.77;;;2.63;;
46266;SDS011;31998;48.798;15.066;2023-04-03T06:52:27;2.83;;;1.67;;
46266;SDS011;31998;48.798;15.066;2023-04-03T06:54:53;3.03;;;2.27;;
46266;SDS011;31998;48.798;15.066;2023-04-03T06:57:22;3.57;;;2.20;;
46266;SDS011;31998;48.798;15.066;2023-04-03T06:59:47;3.63;;;2.00;;
46266;SDS011;31998;48.798;15.066;2023-04-03T07:02:13;4.70;;;2.53;;
46266;SDS011;31998;48.798;15.066;2023-04-03T07:04:38;1.57;;;1.40;;
46266;SDS011;31998;48.798;15.066;2023-04-03T07:07:03;3.30;;;2.30;;
46266;SDS011;31998;48.798;15.066;2023-04-03T07:09:28;1.80;;;1.70;;
46266;SDS011;31998;48.798;15.066;2023-04-03T07:11:53;3.23;;;2.23;;
46266;SDS011;31998;48.798;15.066;2023-04-03T07:14:19;2.10;;;1.93;;
46266;SDS011;31998;48.798;15.066;2023-04-03T07:16:44;2.33;;;2.20;;
46266;SDS011;31998;48.798;15.066;2023-04-03T07:19:09;2.03;;;1.93;;
46266;SDS011;31998;48.798;15.066;2023-04-03T07:21:35;2.33;;;2.13;;
46266;SDS011;31998;48.798;15.066;2023-04-03T07:24:00;2.80;;;2.40;;
46266;SDS011;31998;48.798;15.066;2023-04-03T07:26:26;5.37;;;2.70;;
46266;SDS011;31998;48.798;15.066;2023-04-03T07:28:51;3.20;;;2.20;;
46266;SDS011;31998;48.798;15.066;2023-04-03T07:31:16;8.10;;;2.03;;
46266;SDS011;31998;48.798;15.066;2023-04-03T07:33:43;2.93;;;2.80;;
46266;SDS011;31998;48.798;15.066;2023-04-03T07:36:09;6.33;;;2.93;;
46266;SDS011;31998;48.798;15.066;2023-04-03T07:38:34;3.63;;;2.50;;
46266;SDS011;31998;48.798;15.066;2023-04-03T07:41:00;4.87;;;2.50;;
46266;SDS011;31998;48.798;15.066;2023-04-03T07:43:25;3.00;;;2.80;;
46266;SDS011;31998;48.798;15.066;2023-04-03T07:45:51;2.67;;;2.47;;
46266;SDS011;31998;48.798;15.066;2023-04-03T07:48:18;2.43;;;2.23;;
46266;SDS011;31998;48.798;15.066;2023-04-03T07:50:43;6.87;;;3.20;;
46266;SDS011;31998;48.798;15.066;2023-04-03T07:53:09;4.23;;;2.57;;
46266;SDS011;31998;48.798;15.066;2023-04-03T07:55:34;2.90;;;2.70;;
46266;SDS011;31998;48.798;15.066;2023-04-03T07:58:02;3.20;;;2.37;;
46266;SDS011;31998;48.798;15.066;2023-04-03T08:00:27;2.77;;;2.47;;
46266;SDS011;31998;48.798;15.066;2023-04-03T08:02:53;3.03;;;2.73;;
46266;SDS011;31998;48.798;15.066;2023-04-03T08:05:18;7.00;;;2.93;;
46266;SDS011;31998;48.798;15.066;2023-04-03T08:07:44;3.00;;;2.90;;
46266;SDS011;31998;48.798;15.066;2023-04-03T08:10:09;2.50;;;2.40;;
46266;SDS011;31998;48.798;15.066;2023-04-03T08:12:34;2.67;;;2.57;;
46266;SDS011;31998;48.798;15.066;2023-04-03T08:15:01;8.03;;;2.57;;
46266;SDS011;31998;48.798;15.066;2023-04-03T08:17:26;4.40;;;2.70;;
46266;SDS011;31998;48.798;15.066;2023-04-03T08:19:52;2.83;;;2.67;;
46266;SDS011;31998;48.798;15.066;2023-04-03T08:22:17;3.10;;;2.80;;
46266;SDS011;31998;48.798;15.066;2023-04-03T08:24:42;2.20;;;2.10;;
46266;SDS011;31998;48.798;15.066;2023-04-03T08:27:07;3.10;;;2.90;;
46266;SDS011;31998;48.798;15.066;2023-04-03T08:29:33;3.33;;;3.03;;
46266;SDS011;31998;48.798;15.066;2023-04-03T08:31:58;3.40;;;3.10;;
46266;SDS011;31998;48.798;15.066;2023-04-03T08:34:23;3.60;;;3.20;;
46266;SDS011;31998;48.798;15.066;2023-04-03T08:36:49;6.53;;;3.20;;
46266;SDS011;31998;48.798;15.066;2023-04-03T08:39:14;3.80;;;3.50;;
46266;SDS011;31998;48.798;15.066;2023-04-03T08:41:42;5.00;;;3.13;;
46266;SDS011;31998;48.798;15.066;2023-04-03T08:44:12;2.70;;;2.53;;
46266;SDS011;31998;48.798;15.066;2023-04-03T08:50:05;3.83;;;3.53;;
46266;SDS011;31998;48.798;15.066;2023-04-03T08:52:37;5.43;;;3.90;;
46266;SDS011;31998;48.798;15.066;2023-04-03T08:55:04;2.63;;;2.53;;
46266;SDS011;31998;48.798;15.066;2023-04-03T08:57:30;3.50;;;3.30;;
46266;SDS011;31998;48.798;15.066;2023-04-03T09:00:03;4.27;;;3.87;;
46266;SDS011;31998;48.798;15.066;2023-04-03T09:02:31;3.50;;;3.20;;
46266;SDS011;31998;48.798;15.066;2023-04-03T09:04:57;4.40;;;3.10;;
46266;SDS011;31998;48.798;15.066;2023-04-03T09:07:30;3.20;;;2.90;;
46266;SDS011;31998;48.798;15.066;2023-04-03T09:09:58;2.77;;;2.57;;
46266;SDS011;31998;48.798;15.066;2023-04-03T09:12:32;5.90;;;3.13;;
46266;SDS011;31998;48.798;15.066;2023-04-03T09:15:04;4.20;;;2.87;;
46266;SDS011;31998;48.798;15.066;2023-04-03T09:22:57;2.97;;;2.70;;
46266;SDS011;31998;48.798;15.066;2023-04-03T09:25:27;3.80;;;3.50;;
46266;SDS011;31998;48.798;15.066;2023-04-03T09:27:52;5.50;;;4.63;;
46266;SDS011;31998;48.798;15.066;2023-04-03T09:30:22;3.87;;;3.30;;
46266;SDS011;31998;48.798;15.066;2023-04-03T09:32:49;4.33;;;4.03;;
46266;SDS011;31998;48.798;15.066;2023-04-03T09:35:16;2.77;;;2.53;;
46266;SDS011;31998;48.798;15.066;2023-04-03T09:37:44;3.30;;;3.07;;
46266;SDS011;31998;48.798;15.066;2023-04-03T09:45:41;3.90;;;2.93;;
46266;SDS011;31998;48.798;15.066;2023-04-03T09:48:08;2.73;;;2.53;;
46266;SDS011;31998;48.798;15.066;2023-04-03T09:50:38;3.33;;;2.30;;
46266;SDS011;31998;48.798;15.066;2023-04-03T09:53:04;2.30;;;2.20;;
46266;SDS011;31998;48.798;15.066;2023-04-03T09:55:30;2.13;;;2.03;;
46266;SDS011;31998;48.798;15.066;2023-04-03T09:57:59;2.30;;;2.20;;
46266;SDS011;31998;48.798;15.066;2023-04-03T10:00:35;4.43;;;2.07;;
46266;SDS011;31998;48.798;15.066;2023-04-03T10:03:00;2.00;;;1.90;;
46266;SDS011;31998;48.798;15.066;2023-04-03T10:05:27;3.50;;;2.00;;
46266;SDS011;31998;48.798;15.066;2023-04-03T10:08:06;4.73;;;2.43;;
46266;SDS011;31998;48.798;15.066;2023-04-03T10:10:32;2.27;;;2.17;;
46266;SDS011;31998;48.798;15.066;2023-04-03T10:13:04;2.63;;;2.27;;
46266;SDS011;31998;48.798;15.066;2023-04-03T10:15:30;2.30;;;2.20;;
46266;SDS011;31998;48.798;15.066;2023-04-03T10:18:02;2.27;;;2.17;;
46266;SDS011;31998;48.798;15.066;2023-04-03T10:28:04;2.27;;;2.07;;
46266;SDS011;31998;48.798;15.066;2023-04-03T10:35:50;1.87;;;1.77;;
46266;SDS011;31998;48.798;15.066;2023-04-03T10:38:20;2.03;;;1.90;;
46266;SDS011;31998;48.798;15.066;2023-04-03T10:40:57;2.10;;;1.90;;
46266;SDS011;31998;48.798;15.066;2023-04-03T10:46:26;4.40;;;1.83;;
46266;SDS011;31998;48.798;15.066;2023-04-03T10:49:10;3.30;;;2.10;;
46266;SDS011;31998;48.798;15.066;2023-04-03T10:51:43;1.67;;;1.50;;
46266;SDS011;31998;48.798;15.066;2023-04-03T10:54:20;1.50;;;1.40;;
46266;SDS011;31998;48.798;15.066;2023-04-03T10:59:23;3.50;;;1.63;;
46266;SDS011;31998;48.798;15.066;2023-04-03T11:01:59;2.00;;;1.90;;
46266;SDS011;31998;48.798;15.066;2023-04-03T11:04:27;1.93;;;1.83;;
46266;SDS011;31998;48.798;15.066;2023-04-03T11:07:08;2.57;;;1.90;;
46266;SDS011;31998;48.798;15.066;2023-04-03T11:09:35;3.10;;;2.30;;
46266;SDS011;31998;48.798;15.066;2023-04-03T11:12:24;1.87;;;1.60;;
46266;SDS011;31998;48.798;15.066;2023-04-03T11:14:51;6.10;;;1.63;;
46266;SDS011;31998;48.798;15.066;2023-04-03T11:25:36;3.03;;;1.83;;
46266;SDS011;31998;48.798;15.066;2023-04-03T11:27:54;2.70;;;2.10;;
46266;SDS011;31998;48.798;15.066;2023-04-03T11:30:21;2.83;;;1.77;;
46266;SDS011;31998;48.798;15.066;2023-04-03T11:33:09;2.50;;;2.33;;
46266;SDS011;31998;48.798;15.066;2023-04-03T11:35:42;1.70;;;1.60;;
46266;SDS011;31998;48.798;15.066;2023-04-03T11:38:10;2.97;;;2.07;;
46266;SDS011;31998;48.798;15.066;2023-04-03T11:40:38;1.90;;;1.80;;
46266;SDS011;31998;48.798;15.066;2023-04-03T11:43:07;1.93;;;1.87;;
46266;SDS011;31998;48.798;15.066;2023-04-03T11:48:04;1.80;;;1.80;;
46266;SDS011;31998;48.798;15.066;2023-04-03T11:50:45;2.00;;;1.30;;
46266;SDS011;31998;48.798;15.066;2023-04-03T11:55:43;1.77;;;1.67;;
46266;SDS011;31998;48.798;15.066;2023-04-03T12:13:38;1.87;;;1.50;;
46266;SDS011;31998;48.798;15.066;2023-04-03T12:16:05;2.03;;;1.50;;
46266;SDS011;31998;48.798;15.066;2023-04-03T12:18:31;2.60;;;1.63;;
46266;SDS011;31998;48.798;15.066;2023-04-03T12:20:57;1.50;;;1.40;;
46266;SDS011;31998;48.798;15.066;2023-04-03T12:23:23;1.50;;;1.50;;
46266;SDS011;31998;48.798;15.066;2023-04-03T12:25:49;1.40;;;1.30;;
46266;SDS011;31998;48.798;15.066;2023-04-03T12:28:15;2.50;;;1.37;;
46266;SDS011;31998;48.798;15.066;2023-04-03T12:30:40;1.63;;;1.63;;
46266;SDS011;31998;48.798;15.066;2023-04-03T12:35:51;1.67;;;1.53;;
46266;SDS011;31998;48.798;15.066;2023-04-03T12:51:13;1.50;;;1.40;;
46266;SDS011;31998;48.798;15.066;2023-04-03T12:53:39;2.53;;;1.60;;
46266;SDS011;31998;48.798;15.066;2023-04-03T12:56:19;1.33;;;1.23;;
46266;SDS011;31998;48.798;15.066;2023-04-03T12:58:45;1.60;;;1.47;;
46266;SDS011;31998;48.798;15.066;2023-04-03T13:01:12;1.33;;;1.23;;
46266;SDS011;31998;48.798;15.066;2023-04-03T13:03:39;2.00;;;1.80;;
46266;SDS011;31998;48.798;15.066;2023-04-03T13:06:04;6.10;;;1.47;;
46266;SDS011;31998;48.798;15.066;2023-04-03T13:08:30;3.70;;;1.20;;
46266;SDS011;31998;48.798;15.066;2023-04-03T13:13:21;6.63;;;5.17;;
46266;SDS011;31998;48.798;15.066;2023-04-03T13:15:48;1.90;;;1.30;;
46266;SDS011;31998;48.798;15.066;2023-04-03T13:20:51;1.37;;;1.10;;
46266;SDS011;31998;48.798;15.066;2023-04-03T13:23:17;1.10;;;1.10;;
46266;SDS011;31998;48.798;15.066;2023-04-03T13:25:43;1.80;;;1.30;;
46266;SDS011;31998;48.798;15.066;2023-04-03T13:28:11;1.50;;;1.40;;
46266;SDS011;31998;48.798;15.066;2023-04-03T13:30:38;2.07;;;1.50;;
46266;SDS011;31998;48.798;15.066;2023-04-03T13:33:05;3.27;;;2.10;;
46266;SDS011;31998;48.798;15.066;2023-04-03T13:35:36;1.13;;;1.10;;
46266;SDS011;31998;48.798;15.066;2023-04-03T13:38:04;4.47;;;1.50;;
46266;SDS011;31998;48.798;15.066;2023-04-03T13:40:30;2.00;;;1.90;;
46266;SDS011;31998;48.798;15.066;2023-04-03T13:42:59;2.33;;;2.23;;
46266;SDS011;31998;48.798;15.066;2023-04-03T13:45:26;1.43;;;1.30;;
46266;SDS011;31998;48.798;15.066;2023-04-03T13:47:55;1.87;;;1.40;;
46266;SDS011;31998;48.798;15.066;2023-04-03T13:50:31;1.90;;;0.90;;
46266;SDS011;31998;48.798;15.066;2023-04-03T13:53:12;1.27;;;1.17;;
46266;SDS011;31998;48.798;15.066;2023-04-03T13:55:53;1.20;;;1.20;;
46266;SDS011;31998;48.798;15.066;2023-04-03T13:58:22;1.27;;;1.17;;
46266;SDS011;31998;48.798;15.066;2023-04-03T14:00:51;1.60;;;1.07;;
46266;SDS011;31998;48.798;15.066;2023-04-03T14:03:22;1.00;;;1.00;;
46266;SDS011;31998;48.798;15.066;2023-04-03T14:05:47;1.80;;;1.13;;
46266;SDS011;31998;48.798;15.066;2023-04-03T14:08:12;1.70;;;1.30;;
46266;SDS011;31998;48.798;15.066;2023-04-03T14:10:38;1.27;;;1.17;;
46266;SDS011;31998;48.798;15.066;2023-04-03T14:13:03;1.90;;;1.37;;
46266;SDS011;31998;48.798;15.066;2023-04-03T14:15:28;0.90;;;0.90;;
46266;SDS011;31998;48.798;15.066;2023-04-03T14:17:55;2.10;;;0.80;;
46266;SDS011;31998;48.798;15.066;2023-04-03T14:20:21;0.90;;;0.90;;
46266;SDS011;31998;48.798;15.066;2023-04-03T14:22:47;1.60;;;1.50;;
46266;SDS011;31998;48.798;15.066;2023-04-03T14:25:13;4.23;;;1.20;;
46266;SDS011;31998;48.798;15.066;2023-04-03T14:27:40;1.80;;;1.33;;
46266;SDS011;31998;48.798;15.066;2023-04-03T14:30:07;1.47;;;1.30;;
46266;SDS011;31998;48.798;15.066;2023-04-03T14:32:33;1.00;;;1.00;;
46266;SDS011;31998;48.798;15.066;2023-04-03T14:34:58;1.00;;;1.00;;
46266;SDS011;31998;48.798;15.066;2023-04-03T14:37:27;1.23;;;0.90;;
46266;SDS011;31998;48.798;15.066;2023-04-03T14:39:54;1.43;;;1.33;;
46266;SDS011;31998;48.798;15.066;2023-04-03T14:42:38;2.00;;;1.60;;
46266;SDS011;31998;48.798;15.066;2023-04-03T14:45:05;1.40;;;1.10;;
46266;SDS011;31998;48.798;15.066;2023-04-03T14:47:31;1.27;;;0.87;;
46266;SDS011;31998;48.798;15.066;2023-04-03T14:49:56;1.50;;;1.50;;
46266;SDS011;31998;48.798;15.066;2023-04-03T14:52:23;1.20;;;1.10;;
46266;SDS011;31998;48.798;15.066;2023-04-03T14:54:49;1.57;;;1.47;;
46266;SDS011;31998;48.798;15.066;2023-04-03T14:57:15;2.60;;;1.50;;
46266;SDS011;31998;48.798;15.066;2023-04-03T14:59:41;2.93;;;1.07;;
46266;SDS011;31998;48.798;15.066;2023-04-03T15:02:22;4.20;;;1.13;;
46266;SDS011;31998;48.798;15.066;2023-04-03T15:04:48;0.87;;;0.87;;
46266;SDS011;31998;48.798;15.066;2023-04-03T15:07:14;2.20;;;1.50;;
46266;SDS011;31998;48.798;15.066;2023-04-03T15:09:40;5.03;;;0.80;;
46266;SDS011;31998;48.798;15.066;2023-04-03T15:12:05;4.47;;;1.57;;
46266;SDS011;31998;48.798;15.066;2023-04-03T15:14:30;5.23;;;2.27;;
46266;SDS011;31998;48.798;15.066;2023-04-03T15:16:55;0.90;;;0.90;;
46266;SDS011;31998;48.798;15.066;2023-04-03T15:19:20;2.33;;;1.17;;
46266;SDS011;31998;48.798;15.066;2023-04-03T15:21:46;1.17;;;1.07;;
46266;SDS011;31998;48.798;15.066;2023-04-03T15:24:11;2.20;;;1.10;;
46266;SDS011;31998;48.798;15.066;2023-04-03T15:26:36;1.47;;;1.37;;
46266;SDS011;31998;48.798;15.066;2023-04-03T15:29:02;2.50;;;1.10;;
46266;SDS011;31998;48.798;15.066;2023-04-03T15:31:28;1.37;;;1.27;;
46266;SDS011;31998;48.798;15.066;2023-04-03T15:33:53;3.10;;;1.40;;
46266;SDS011;31998;48.798;15.066;2023-04-03T15:36:18;1.13;;;1.00;;
46266;SDS011;31998;48.798;15.066;2023-04-03T15:38:44;1.10;;;1.00;;
46266;SDS011;31998;48.798;15.066;2023-04-03T15:41:09;1.53;;;1.43;;
46266;SDS011;31998;48.798;15.066;2023-04-03T15:43:34;1.70;;;1.40;;
46266;SDS011;31998;48.798;15.066;2023-04-03T15:46:00;3.70;;;2.00;;
46266;SDS011;31998;48.798;15.066;2023-04-03T15:48:26;2.47;;;1.40;;
46266;SDS011;31998;48.798;15.066;2023-04-03T15:50:51;1.93;;;1.20;;
46266;SDS011;31998;48.798;15.066;2023-04-03T15:53:17;1.43;;;1.33;;
46266;SDS011;31998;48.798;15.066;2023-04-03T15:55:42;1.00;;;1.00;;
46266;SDS011;31998;48.798;15.066;2023-04-03T15:58:07;2.40;;;1.80;;
46266;SDS011;31998;48.798;15.066;2023-04-03T16:00:33;1.20;;;1.10;;